sensor_id;sensor_type;location;lat;lon;timestamp;P1;durP1;ratioP1;P2;durP2;ratioP2
53549;SDS011;67273;52.914;-0.982;2023-02-22T00:01:51;2.63;;;1.92;;
53549;SDS011;67273;52.914;-0.982;2023-02-22T00:04:34;2.63;;;1.70;;
53549;SDS011;67273;52.914;-0.982;2023-02-22T00:07:01;2.63;;;1.90;;
53549;SDS011;67273;52.914;-0.982;2023-02-22T00:09:27;1.95;;;1.83;;
53549;SDS011;67273;52.914;-0.982;2023-02-22T00:11:54;2.42;;;1.75;;
53549;SDS011;67273;52.914;-0.982;2023-02-22T00:14:20;1.75;;;1.65;;
53549;SDS011;67273;52.914;-0.982;2023-02-22T00:16:46;2.30;;;1.80;;
53549;SDS011;67273;52.914;-0.982;2023-02-22T00:19:11;2.85;;;1.80;;
53549;SDS011;67273;52.914;-0.982;2023-02-22T00:21:37;2.42;;;1.90;;
53549;SDS011;67273;52.914;-0.982;2023-02-22T00:24:04;2.95;;;1.90;;
53549;SDS011;67273;52.914;-0.982;2023-02-22T00:26:47;1.90;;;1.80;;
53549;SDS011;67273;52.914;-0.982;2023-02-22T00:29:15;2.20;;;2.00;;
53549;SDS011;67273;52.914;-0.982;2023-02-22T00:31:43;2.05;;;1.77;;
53549;SDS011;67273;52.914;-0.982;2023-02-22T00:34:10;2.10;;;1.90;;
53549;SDS011;67273;52.914;-0.982;2023-02-22T00:36:37;2.08;;;1.88;;
53549;SDS011;67273;52.914;-0.982;2023-02-22T00:39:05;2.55;;;2.00;;
53549;SDS011;67273;52.914;-0.982;2023-02-22T00:41:31;2.38;;;1.92;;
53549;SDS011;67273;52.914;-0.982;2023-02-22T00:43:57;2.10;;;1.90;;
53549;SDS011;67273;52.914;-0.982;2023-02-22T00:46:23;2.80;;;2.10;;
53549;SDS011;67273;52.914;-0.982;2023-02-22T00:48:51;2.78;;;2.20;;
53549;SDS011;67273;52.914;-0.982;2023-02-22T00:51:17;2.50;;;2.25;;
53549;SDS011;67273;52.914;-0.982;2023-02-22T00:53:43;2.08;;;1.88;;
53549;SDS011;67273;52.914;-0.982;2023-02-22T00:56:11;2.55;;;2.05;;
53549;SDS011;67273;52.914;-0.982;2023-02-22T00:58:36;2.13;;;1.90;;
53549;SDS011;67273;52.914;-0.982;2023-02-22T01:01:02;3.05;;;2.13;;
53549;SDS011;67273;52.914;-0.982;2023-02-22T01:03:28;2.55;;;2.17;;
53549;SDS011;67273;52.914;-0.982;2023-02-22T01:05:55;2.40;;;2.20;;
53549;SDS011;67273;52.914;-0.982;2023-02-22T01:08:20;2.30;;;2.00;;
53549;SDS011;67273;52.914;-0.982;2023-02-22T01:10:49;2.25;;;1.83;;
53549;SDS011;67273;52.914;-0.982;2023-02-22T01:13:19;2.78;;;2.17;;
53549;SDS011;67273;52.914;-0.982;2023-02-22T01:15:44;1.95;;;1.77;;
53549;SDS011;67273;52.914;-0.982;2023-02-22T01:18:10;3.22;;;2.13;;
53549;SDS011;67273;52.914;-0.982;2023-02-22T01:20:37;2.55;;;2.08;;
53549;SDS011;67273;52.914;-0.982;2023-02-22T01:23:04;2.20;;;2.00;;
53549;SDS011;67273;52.914;-0.982;2023-02-22T01:25:32;2.78;;;2.00;;
53549;SDS011;67273;52.914;-0.982;2023-02-22T01:28:00;2.22;;;2.03;;
53549;SDS011;67273;52.914;-0.982;2023-02-22T01:30:28;2.30;;;2.10;;
53549;SDS011;67273;52.914;-0.982;2023-02-22T01:32:57;2.20;;;2.00;;
53549;SDS011;67273;52.914;-0.982;2023-02-22T01:35:24;2.63;;;2.03;;
53549;SDS011;67273;52.914;-0.982;2023-02-22T01:37:52;2.40;;;2.13;;
53549;SDS011;67273;52.914;-0.982;2023-02-22T01:40:19;2.20;;;1.95;;
53549;SDS011;67273;52.914;-0.982;2023-02-22T01:42:46;2.80;;;2.00;;
53549;SDS011;67273;52.914;-0.982;2023-02-22T01:45:39;2.22;;;2.03;;
53549;SDS011;67273;52.914;-0.982;2023-02-22T01:48:10;2.90;;;2.30;;
53549;SDS011;67273;52.914;-0.982;2023-02-22T01:50:40;2.20;;;2.00;;
53549;SDS011;67273;52.914;-0.982;2023-02-22T01:53:12;2.30;;;2.10;;
53549;SDS011;67273;52.914;-0.982;2023-02-22T01:55:41;3.10;;;2.30;;
53549;SDS011;67273;52.914;-0.982;2023-02-22T01:58:07;2.78;;;2.30;;
53549;SDS011;67273;52.914;-0.982;2023-02-22T02:00:34;2.20;;;2.00;;
53549;SDS011;67273;52.914;-0.982;2023-02-22T02:03:03;2.53;;;2.10;;
53549;SDS011;67273;52.914;-0.982;2023-02-22T02:05:31;2.55;;;2.08;;
53549;SDS011;67273;52.914;-0.982;2023-02-22T02:08:00;2.90;;;2.20;;
53549;SDS011;67273;52.914;-0.982;2023-02-22T02:10:29;3.20;;;2.20;;
53549;SDS011;67273;52.914;-0.982;2023-02-22T02:12:56;2.33;;;2.10;;
53549;SDS011;67273;52.914;-0.982;2023-02-22T02:15:24;2.28;;;1.90;;
53549;SDS011;67273;52.914;-0.982;2023-02-22T02:17:53;3.25;;;2.38;;
53549;SDS011;67273;52.914;-0.982;2023-02-22T02:20:23;2.08;;;1.90;;
53549;SDS011;67273;52.914;-0.982;2023-02-22T02:22:53;1.92;;;1.73;;
53549;SDS011;67273;52.914;-0.982;2023-02-22T02:28:52;2.38;;;2.00;;
53549;SDS011;67273;52.914;-0.982;2023-02-22T02:34:45;2.33;;;1.83;;
53549;SDS011;67273;52.914;-0.982;2023-02-22T02:37:17;2.45;;;2.00;;
53549;SDS011;67273;52.914;-0.982;2023-02-22T02:39:47;2.17;;;1.70;;
53549;SDS011;67273;52.914;-0.982;2023-02-22T02:42:21;2.78;;;2.10;;
53549;SDS011;67273;52.914;-0.982;2023-02-22T02:44:53;2.42;;;2.05;;
53549;SDS011;67273;52.914;-0.982;2023-02-22T02:47:25;2.20;;;2.00;;
53549;SDS011;67273;52.914;-0.982;2023-02-22T02:49:55;2.28;;;1.90;;
53549;SDS011;67273;52.914;-0.982;2023-02-22T02:52:25;2.15;;;1.95;;
53549;SDS011;67273;52.914;-0.982;2023-02-22T02:54:53;2.13;;;1.92;;
53549;SDS011;67273;52.914;-0.982;2023-02-22T02:57:20;2.47;;;2.20;;
53549;SDS011;67273;52.914;-0.982;2023-02-22T02:59:46;2.33;;;1.83;;
53549;SDS011;67273;52.914;-0.982;2023-02-22T03:02:17;2.20;;;1.90;;
53549;SDS011;67273;52.914;-0.982;2023-02-22T03:05:03;2.05;;;1.85;;
53549;SDS011;67273;52.914;-0.982;2023-02-22T03:07:45;2.00;;;1.80;;
53549;SDS011;67273;52.914;-0.982;2023-02-22T03:10:24;2.00;;;1.80;;
53549;SDS011;67273;52.914;-0.982;2023-02-22T03:13:08;1.92;;;1.83;;
53549;SDS011;67273;52.914;-0.982;2023-02-22T03:15:41;2.47;;;2.03;;
53549;SDS011;67273;52.914;-0.982;2023-02-22T03:18:17;2.30;;;2.00;;
53549;SDS011;67273;52.914;-0.982;2023-02-22T03:20:51;2.10;;;1.90;;
53549;SDS011;67273;52.914;-0.982;2023-02-22T03:23:23;2.10;;;1.90;;
53549;SDS011;67273;52.914;-0.982;2023-02-22T03:25:56;2.30;;;2.10;;
53549;SDS011;67273;52.914;-0.982;2023-02-22T03:28:25;2.10;;;1.90;;
53549;SDS011;67273;52.914;-0.982;2023-02-22T03:30:53;2.20;;;2.00;;
53549;SDS011;67273;52.914;-0.982;2023-02-22T03:33:27;2.22;;;1.90;;
53549;SDS011;67273;52.914;-0.982;2023-02-22T03:36:04;4.32;;;2.60;;
53549;SDS011;67273;52.914;-0.982;2023-02-22T03:38:36;2.38;;;2.10;;
53549;SDS011;67273;52.914;-0.982;2023-02-22T03:41:04;2.13;;;1.92;;
53549;SDS011;67273;52.914;-0.982;2023-02-22T03:43:35;2.20;;;2.00;;
53549;SDS011;67273;52.914;-0.982;2023-02-22T03:46:08;2.33;;;2.10;;
53549;SDS011;67273;52.914;-0.982;2023-02-22T03:48:38;2.78;;;2.10;;
53549;SDS011;67273;52.914;-0.982;2023-02-22T03:51:12;2.90;;;2.30;;
53549;SDS011;67273;52.914;-0.982;2023-02-22T03:53:40;2.95;;;2.30;;
53549;SDS011;67273;52.914;-0.982;2023-02-22T03:56:10;2.83;;;2.53;;
53549;SDS011;67273;52.914;-0.982;2023-02-22T03:58:39;3.60;;;2.72;;
53549;SDS011;67273;52.914;-0.982;2023-02-22T04:01:12;2.50;;;2.20;;
53549;SDS011;67273;52.914;-0.982;2023-02-22T04:03:37;3.10;;;2.50;;
53549;SDS011;67273;52.914;-0.982;2023-02-22T04:06:05;3.25;;;2.60;;
53549;SDS011;67273;52.914;-0.982;2023-02-22T04:08:32;3.50;;;2.55;;
53549;SDS011;67273;52.914;-0.982;2023-02-22T04:11:00;2.53;;;2.33;;
53549;SDS011;67273;52.914;-0.982;2023-02-22T04:13:26;3.13;;;2.40;;
53549;SDS011;67273;52.914;-0.982;2023-02-22T04:15:52;3.38;;;2.70;;
53549;SDS011;67273;52.914;-0.982;2023-02-22T04:18:18;3.00;;;2.42;;
53549;SDS011;67273;52.914;-0.982;2023-02-22T04:20:46;3.83;;;2.63;;
53549;SDS011;67273;52.914;-0.982;2023-02-22T04:23:21;3.25;;;2.55;;
53549;SDS011;67273;52.914;-0.982;2023-02-22T04:25:49;3.45;;;2.88;;
53549;SDS011;67273;52.914;-0.982;2023-02-22T04:28:15;3.63;;;2.92;;
53549;SDS011;67273;52.914;-0.982;2023-02-22T04:31:00;3.88;;;2.95;;
53549;SDS011;67273;52.914;-0.982;2023-02-22T04:33:27;3.17;;;2.80;;
53549;SDS011;67273;52.914;-0.982;2023-02-22T04:35:52;3.22;;;2.90;;
53549;SDS011;67273;52.914;-0.982;2023-02-22T04:38:18;3.85;;;2.95;;
53549;SDS011;67273;52.914;-0.982;2023-02-22T04:40:44;2.90;;;2.60;;
53549;SDS011;67273;52.914;-0.982;2023-02-22T04:43:11;3.72;;;2.95;;
53549;SDS011;67273;52.914;-0.982;2023-02-22T04:45:38;3.88;;;3.20;;
53549;SDS011;67273;52.914;-0.982;2023-02-22T04:48:06;4.18;;;3.20;;
53549;SDS011;67273;52.914;-0.982;2023-02-22T04:50:31;3.50;;;2.80;;
53549;SDS011;67273;52.914;-0.982;2023-02-22T04:52:57;4.82;;;3.50;;
53549;SDS011;67273;52.914;-0.982;2023-02-22T04:55:23;4.28;;;3.40;;
53549;SDS011;67273;52.914;-0.982;2023-02-22T04:57:49;3.72;;;3.28;;
53549;SDS011;67273;52.914;-0.982;2023-02-22T05:00:17;4.47;;;3.25;;
53549;SDS011;67273;52.914;-0.982;2023-02-22T05:02:46;4.30;;;3.20;;
53549;SDS011;67273;52.914;-0.982;2023-02-22T05:05:13;3.45;;;3.05;;
53549;SDS011;67273;52.914;-0.982;2023-02-22T05:07:39;4.18;;;3.13;;
53549;SDS011;67273;52.914;-0.982;2023-02-22T05:10:05;3.33;;;3.03;;
53549;SDS011;67273;52.914;-0.982;2023-02-22T05:12:31;4.35;;;3.47;;
53549;SDS011;67273;52.914;-0.982;2023-02-22T05:14:56;3.92;;;3.13;;
53549;SDS011;67273;52.914;-0.982;2023-02-22T05:17:24;3.83;;;3.10;;
53549;SDS011;67273;52.914;-0.982;2023-02-22T05:19:49;4.20;;;3.35;;
53549;SDS011;67273;52.914;-0.982;2023-02-22T05:22:15;3.67;;;3.00;;
53549;SDS011;67273;52.914;-0.982;2023-02-22T05:24:41;4.15;;;3.40;;
53549;SDS011;67273;52.914;-0.982;2023-02-22T05:27:08;4.50;;;3.42;;
53549;SDS011;67273;52.914;-0.982;2023-02-22T05:29:34;4.40;;;3.40;;
53549;SDS011;67273;52.914;-0.982;2023-02-22T05:31:59;3.72;;;3.28;;
53549;SDS011;67273;52.914;-0.982;2023-02-22T05:34:28;4.38;;;3.22;;
53549;SDS011;67273;52.914;-0.982;2023-02-22T05:36:53;5.65;;;3.58;;
53549;SDS011;67273;52.914;-0.982;2023-02-22T05:39:19;3.80;;;3.28;;
53549;SDS011;67273;52.914;-0.982;2023-02-22T05:41:45;4.75;;;3.70;;
53549;SDS011;67273;52.914;-0.982;2023-02-22T05:44:11;4.22;;;3.53;;
53549;SDS011;67273;52.914;-0.982;2023-02-22T05:46:37;3.65;;;3.17;;
53549;SDS011;67273;52.914;-0.982;2023-02-22T05:49:02;4.05;;;3.33;;
53549;SDS011;67273;52.914;-0.982;2023-02-22T05:51:29;4.22;;;3.40;;
53549;SDS011;67273;52.914;-0.982;2023-02-22T05:53:55;3.90;;;3.17;;
53549;SDS011;67273;52.914;-0.982;2023-02-22T05:56:21;4.03;;;3.30;;
53549;SDS011;67273;52.914;-0.982;2023-02-22T05:58:48;3.53;;;3.13;;
53549;SDS011;67273;52.914;-0.982;2023-02-22T06:01:15;4.68;;;3.33;;
53549;SDS011;67273;52.914;-0.982;2023-02-22T06:03:40;3.53;;;3.00;;
53549;SDS011;67273;52.914;-0.982;2023-02-22T06:06:06;4.47;;;3.60;;
53549;SDS011;67273;52.914;-0.982;2023-02-22T06:08:33;3.80;;;3.20;;
53549;SDS011;67273;52.914;-0.982;2023-02-22T06:10:59;3.75;;;3.13;;
53549;SDS011;67273;52.914;-0.982;2023-02-22T06:13:25;3.63;;;2.88;;
53549;SDS011;67273;52.914;-0.982;2023-02-22T06:15:50;3.47;;;3.10;;
53549;SDS011;67273;52.914;-0.982;2023-02-22T06:18:16;4.78;;;3.30;;
53549;SDS011;67273;52.914;-0.982;2023-02-22T06:20:42;3.97;;;3.17;;
53549;SDS011;67273;52.914;-0.982;2023-02-22T06:23:08;4.20;;;2.92;;
53549;SDS011;67273;52.914;-0.982;2023-02-22T06:25:35;4.07;;;2.90;;
53549;SDS011;67273;52.914;-0.982;2023-02-22T06:28:01;3.97;;;3.15;;
53549;SDS011;67273;52.914;-0.982;2023-02-22T06:30:28;3.60;;;2.90;;
53549;SDS011;67273;52.914;-0.982;2023-02-22T06:32:55;3.85;;;2.80;;
53549;SDS011;67273;52.914;-0.982;2023-02-22T06:35:21;3.70;;;3.00;;
53549;SDS011;67273;52.914;-0.982;2023-02-22T06:37:47;3.45;;;3.05;;
53549;SDS011;67273;52.914;-0.982;2023-02-22T06:40:13;3.03;;;2.70;;
53549;SDS011;67273;52.914;-0.982;2023-02-22T06:42:41;3.53;;;2.80;;
53549;SDS011;67273;52.914;-0.982;2023-02-22T06:45:07;3.85;;;2.90;;
53549;SDS011;67273;52.914;-0.982;2023-02-22T06:47:36;3.17;;;2.50;;
53549;SDS011;67273;52.914;-0.982;2023-02-22T06:50:03;3.25;;;2.72;;
53549;SDS011;67273;52.914;-0.982;2023-02-22T06:52:29;3.50;;;2.80;;
53549;SDS011;67273;52.914;-0.982;2023-02-22T06:54:54;3.30;;;2.70;;
53549;SDS011;67273;52.914;-0.982;2023-02-22T06:57:20;3.50;;;2.58;;
53549;SDS011;67273;52.914;-0.982;2023-02-22T06:59:47;3.30;;;2.40;;
53549;SDS011;67273;52.914;-0.982;2023-02-22T07:02:13;2.28;;;2.08;;
53549;SDS011;67273;52.914;-0.982;2023-02-22T07:04:39;2.63;;;2.28;;
53549;SDS011;67273;52.914;-0.982;2023-02-22T07:07:05;2.72;;;2.35;;
53549;SDS011;67273;52.914;-0.982;2023-02-22T07:09:31;2.40;;;2.20;;
53549;SDS011;67273;52.914;-0.982;2023-02-22T07:11:56;2.83;;;2.40;;
53549;SDS011;67273;52.914;-0.982;2023-02-22T07:14:22;2.47;;;2.22;;
53549;SDS011;67273;52.914;-0.982;2023-02-22T07:16:49;2.50;;;2.20;;
53549;SDS011;67273;52.914;-0.982;2023-02-22T07:19:15;3.42;;;2.15;;
53549;SDS011;67273;52.914;-0.982;2023-02-22T07:21:41;2.97;;;2.42;;
53549;SDS011;67273;52.914;-0.982;2023-02-22T07:24:07;2.60;;;2.38;;
53549;SDS011;67273;52.914;-0.982;2023-02-22T07:26:36;2.40;;;2.20;;
53549;SDS011;67273;52.914;-0.982;2023-02-22T07:29:04;2.60;;;2.22;;
53549;SDS011;67273;52.914;-0.982;2023-02-22T07:31:33;2.28;;;2.00;;
53549;SDS011;67273;52.914;-0.982;2023-02-22T07:34:01;2.17;;;1.98;;
53549;SDS011;67273;52.914;-0.982;2023-02-22T07:36:27;2.40;;;2.20;;
53549;SDS011;67273;52.914;-0.982;2023-02-22T07:38:52;2.28;;;1.98;;
53549;SDS011;67273;52.914;-0.982;2023-02-22T07:41:18;2.22;;;2.00;;
53549;SDS011;67273;52.914;-0.982;2023-02-22T07:43:44;2.70;;;1.98;;
53549;SDS011;67273;52.914;-0.982;2023-02-22T07:46:10;2.42;;;2.05;;
53549;SDS011;67273;52.914;-0.982;2023-02-22T07:48:35;2.28;;;2.05;;
53549;SDS011;67273;52.914;-0.982;2023-02-22T07:51:03;2.38;;;2.10;;
53549;SDS011;67273;52.914;-0.982;2023-02-22T07:53:29;2.10;;;1.90;;
53549;SDS011;67273;52.914;-0.982;2023-02-22T07:55:57;3.25;;;2.17;;
53549;SDS011;67273;52.914;-0.982;2023-02-22T07:58:25;2.60;;;2.08;;
53549;SDS011;67273;52.914;-0.982;2023-02-22T08:00:54;3.17;;;2.30;;
53549;SDS011;67273;52.914;-0.982;2023-02-22T08:03:21;2.78;;;2.30;;
53549;SDS011;67273;52.914;-0.982;2023-02-22T08:05:49;2.20;;;1.98;;
53549;SDS011;67273;52.914;-0.982;2023-02-22T08:08:18;2.55;;;2.10;;
53549;SDS011;67273;52.914;-0.982;2023-02-22T08:10:44;2.65;;;1.83;;
53549;SDS011;67273;52.914;-0.982;2023-02-22T08:13:11;2.33;;;2.10;;
53549;SDS011;67273;52.914;-0.982;2023-02-22T08:15:37;2.60;;;2.30;;
53549;SDS011;67273;52.914;-0.982;2023-02-22T08:18:04;2.55;;;2.20;;
53549;SDS011;67273;52.914;-0.982;2023-02-22T08:20:33;2.83;;;2.00;;
53549;SDS011;67273;52.914;-0.982;2023-02-22T08:22:59;2.60;;;2.22;;
53549;SDS011;67273;52.914;-0.982;2023-02-22T08:25:27;5.13;;;2.40;;
53549;SDS011;67273;52.914;-0.982;2023-02-22T08:27:56;3.60;;;2.28;;
53549;SDS011;67273;52.914;-0.982;2023-02-22T08:30:25;2.85;;;2.40;;
53549;SDS011;67273;52.914;-0.982;2023-02-22T08:32:52;2.92;;;2.30;;
53549;SDS011;67273;52.914;-0.982;2023-02-22T08:35:19;14.20;;;2.80;;
53549;SDS011;67273;52.914;-0.982;2023-02-22T08:37:46;3.75;;;2.28;;
53549;SDS011;67273;52.914;-0.982;2023-02-22T08:40:13;4.53;;;2.53;;
53549;SDS011;67273;52.914;-0.982;2023-02-22T08:42:47;6.60;;;2.80;;
53549;SDS011;67273;52.914;-0.982;2023-02-22T08:45:12;3.38;;;2.45;;
53549;SDS011;67273;52.914;-0.982;2023-02-22T08:47:38;6.05;;;2.72;;
53549;SDS011;67273;52.914;-0.982;2023-02-22T08:50:04;5.38;;;2.50;;
53549;SDS011;67273;52.914;-0.982;2023-02-22T08:52:31;5.45;;;2.75;;
53549;SDS011;67273;52.914;-0.982;2023-02-22T08:54:56;2.58;;;2.30;;
53549;SDS011;67273;52.914;-0.982;2023-02-22T08:57:23;4.70;;;2.60;;
53549;SDS011;67273;52.914;-0.982;2023-02-22T08:59:50;5.22;;;3.17;;
53549;SDS011;67273;52.914;-0.982;2023-02-22T09:02:18;9.43;;;3.30;;
53549;SDS011;67273;52.914;-0.982;2023-02-22T09:04:46;5.13;;;3.20;;
53549;SDS011;67273;52.914;-0.982;2023-02-22T09:07:13;6.53;;;2.72;;
53549;SDS011;67273;52.914;-0.982;2023-02-22T09:09:40;7.03;;;2.85;;
53549;SDS011;67273;52.914;-0.982;2023-02-22T09:12:06;3.67;;;2.53;;
53549;SDS011;67273;52.914;-0.982;2023-02-22T09:14:32;3.88;;;2.35;;
53549;SDS011;67273;52.914;-0.982;2023-02-22T09:16:59;4.03;;;2.97;;
53549;SDS011;67273;52.914;-0.982;2023-02-22T09:19:25;4.43;;;2.95;;
53549;SDS011;67273;52.914;-0.982;2023-02-22T09:21:51;4.75;;;2.58;;
53549;SDS011;67273;52.914;-0.982;2023-02-22T09:24:17;5.05;;;2.78;;
53549;SDS011;67273;52.914;-0.982;2023-02-22T09:26:45;3.55;;;2.50;;
53549;SDS011;67273;52.914;-0.982;2023-02-22T09:29:11;3.25;;;2.45;;
53549;SDS011;67273;52.914;-0.982;2023-02-22T09:31:38;3.50;;;2.38;;
53549;SDS011;67273;52.914;-0.982;2023-02-22T09:34:06;3.90;;;2.72;;
53549;SDS011;67273;52.914;-0.982;2023-02-22T09:36:39;3.17;;;2.60;;
53549;SDS011;67273;52.914;-0.982;2023-02-22T09:39:05;3.92;;;2.60;;
53549;SDS011;67273;52.914;-0.982;2023-02-22T09:41:31;5.53;;;2.97;;
53549;SDS011;67273;52.914;-0.982;2023-02-22T09:44:07;3.63;;;2.80;;
53549;SDS011;67273;52.914;-0.982;2023-02-22T09:46:40;3.38;;;2.90;;
53549;SDS011;67273;52.914;-0.982;2023-02-22T09:49:15;5.22;;;2.78;;
53549;SDS011;67273;52.914;-0.982;2023-02-22T09:51:47;3.60;;;2.80;;
53549;SDS011;67273;52.914;-0.982;2023-02-22T09:54:18;3.78;;;2.95;;
53549;SDS011;67273;52.914;-0.982;2023-02-22T09:56:48;4.82;;;3.33;;
53549;SDS011;67273;52.914;-0.982;2023-02-22T09:59:20;4.65;;;3.30;;
53549;SDS011;67273;52.914;-0.982;2023-02-22T10:01:53;3.90;;;2.90;;
53549;SDS011;67273;52.914;-0.982;2023-02-22T10:04:26;3.92;;;3.10;;
53549;SDS011;67273;52.914;-0.982;2023-02-22T10:07:03;3.72;;;3.08;;
53549;SDS011;67273;52.914;-0.982;2023-02-22T10:09:37;3.67;;;2.83;;
53549;SDS011;67273;52.914;-0.982;2023-02-22T10:12:08;3.97;;;2.88;;
53549;SDS011;67273;52.914;-0.982;2023-02-22T10:14:47;3.78;;;3.25;;
53549;SDS011;67273;52.914;-0.982;2023-02-22T10:17:31;3.92;;;2.95;;
53549;SDS011;67273;52.914;-0.982;2023-02-22T10:20:05;4.43;;;2.92;;
53549;SDS011;67273;52.914;-0.982;2023-02-22T10:22:45;4.07;;;3.07;;
53549;SDS011;67273;52.914;-0.982;2023-02-22T10:25:22;4.82;;;3.20;;
53549;SDS011;67273;52.914;-0.982;2023-02-22T10:27:51;6.53;;;3.13;;
53549;SDS011;67273;52.914;-0.982;2023-02-22T10:30:22;7.93;;;3.60;;
53549;SDS011;67273;52.914;-0.982;2023-02-22T10:32:53;5.95;;;3.13;;
53549;SDS011;67273;52.914;-0.982;2023-02-22T10:35:25;7.15;;;3.42;;
53549;SDS011;67273;52.914;-0.982;2023-02-22T10:37:55;16.63;;;3.80;;
53549;SDS011;67273;52.914;-0.982;2023-02-22T10:40:24;8.65;;;3.58;;
53549;SDS011;67273;52.914;-0.982;2023-02-22T10:42:57;8.35;;;3.75;;
53549;SDS011;67273;52.914;-0.982;2023-02-22T10:45:26;10.35;;;4.22;;
53549;SDS011;67273;52.914;-0.982;2023-02-22T10:47:56;8.30;;;3.45;;
53549;SDS011;67273;52.914;-0.982;2023-02-22T10:50:25;9.05;;;4.00;;
53549;SDS011;67273;52.914;-0.982;2023-02-22T10:52:53;7.93;;;3.45;;
53549;SDS011;67273;52.914;-0.982;2023-02-22T10:55:20;8.23;;;3.13;;
53549;SDS011;67273;52.914;-0.982;2023-02-22T10:57:47;7.75;;;3.22;;
53549;SDS011;67273;52.914;-0.982;2023-02-22T11:00:17;6.72;;;3.53;;
53549;SDS011;67273;52.914;-0.982;2023-02-22T11:02:51;6.07;;;3.13;;
53549;SDS011;67273;52.914;-0.982;2023-02-22T11:05:29;6.80;;;3.10;;
53549;SDS011;67273;52.914;-0.982;2023-02-22T11:08:13;5.68;;;3.30;;
53549;SDS011;67273;52.914;-0.982;2023-02-22T11:10:51;4.38;;;3.10;;
53549;SDS011;67273;52.914;-0.982;2023-02-22T11:13:23;7.72;;;3.10;;
53549;SDS011;67273;52.914;-0.982;2023-02-22T11:15:51;7.22;;;2.97;;
53549;SDS011;67273;52.914;-0.982;2023-02-22T11:18:22;5.53;;;2.97;;
53549;SDS011;67273;52.914;-0.982;2023-02-22T11:20:59;4.55;;;2.70;;
53549;SDS011;67273;52.914;-0.982;2023-02-22T11:23:26;4.75;;;2.40;;
53549;SDS011;67273;52.914;-0.982;2023-02-22T11:25:58;5.05;;;2.50;;
53549;SDS011;67273;52.914;-0.982;2023-02-22T11:28:27;5.35;;;2.42;;
53549;SDS011;67273;52.914;-0.982;2023-02-22T11:30:55;4.25;;;2.47;;
53549;SDS011;67273;52.914;-0.982;2023-02-22T11:33:22;5.20;;;2.33;;
53549;SDS011;67273;52.914;-0.982;2023-02-22T11:35:53;3.35;;;2.05;;
53549;SDS011;67273;52.914;-0.982;2023-02-22T11:38:22;3.40;;;2.10;;
53549;SDS011;67273;52.914;-0.982;2023-02-22T11:41:06;4.57;;;1.95;;
53549;SDS011;67273;52.914;-0.982;2023-02-22T11:43:38;4.82;;;2.20;;
53549;SDS011;67273;52.914;-0.982;2023-02-22T11:46:05;4.22;;;2.30;;
53549;SDS011;67273;52.914;-0.982;2023-02-22T11:48:34;3.00;;;1.98;;
53549;SDS011;67273;52.914;-0.982;2023-02-22T11:51:06;3.42;;;2.10;;
53549;SDS011;67273;52.914;-0.982;2023-02-22T11:53:43;5.57;;;2.20;;
53549;SDS011;67273;52.914;-0.982;2023-02-22T11:56:33;3.05;;;2.00;;
53549;SDS011;67273;52.914;-0.982;2023-02-22T11:59:06;3.50;;;2.22;;
53549;SDS011;67273;52.914;-0.982;2023-02-22T12:01:46;4.03;;;2.00;;
53549;SDS011;67273;52.914;-0.982;2023-02-22T12:04:20;4.25;;;2.45;;
53549;SDS011;67273;52.914;-0.982;2023-02-22T12:07:01;3.88;;;2.40;;
53549;SDS011;67273;52.914;-0.982;2023-02-22T12:09:42;3.90;;;2.15;;
53549;SDS011;67273;52.914;-0.982;2023-02-22T12:12:16;3.72;;;2.13;;
53549;SDS011;67273;52.914;-0.982;2023-02-22T12:14:51;3.00;;;2.10;;
53549;SDS011;67273;52.914;-0.982;2023-02-22T12:17:29;3.80;;;2.10;;
53549;SDS011;67273;52.914;-0.982;2023-02-22T12:20:07;4.30;;;1.73;;
53549;SDS011;67273;52.914;-0.982;2023-02-22T12:22:46;4.72;;;1.98;;
53549;SDS011;67273;52.914;-0.982;2023-02-22T12:25:21;2.75;;;1.88;;
53549;SDS011;67273;52.914;-0.982;2023-02-22T12:27:50;2.80;;;1.90;;
53549;SDS011;67273;52.914;-0.982;2023-02-22T12:30:18;2.78;;;1.77;;
53549;SDS011;67273;52.914;-0.982;2023-02-22T12:32:49;2.83;;;1.80;;
53549;SDS011;67273;52.914;-0.982;2023-02-22T12:35:18;2.85;;;1.70;;
53549;SDS011;67273;52.914;-0.982;2023-02-22T12:38:00;4.03;;;1.77;;
53549;SDS011;67273;52.914;-0.982;2023-02-22T12:40:34;3.20;;;1.77;;
53549;SDS011;67273;52.914;-0.982;2023-02-22T12:43:09;2.08;;;1.50;;
53549;SDS011;67273;52.914;-0.982;2023-02-22T12:45:42;2.65;;;1.60;;
53549;SDS011;67273;52.914;-0.982;2023-02-22T12:48:18;2.17;;;1.40;;
53549;SDS011;67273;52.914;-0.982;2023-02-22T12:50:52;2.78;;;1.40;;
53549;SDS011;67273;52.914;-0.982;2023-02-22T12:53:40;1.38;;;1.27;;
53549;SDS011;67273;52.914;-0.982;2023-02-22T12:56:16;1.85;;;1.30;;
53549;SDS011;67273;52.914;-0.982;2023-02-22T12:58:49;2.67;;;1.30;;
53549;SDS011;67273;52.914;-0.982;2023-02-22T13:01:20;2.67;;;1.10;;
53549;SDS011;67273;52.914;-0.982;2023-02-22T13:03:48;2.10;;;1.33;;
53549;SDS011;67273;52.914;-0.982;2023-02-22T13:06:19;1.55;;;1.10;;
53549;SDS011;67273;52.914;-0.982;2023-02-22T13:08:55;1.20;;;1.10;;
53549;SDS011;67273;52.914;-0.982;2023-02-22T13:11:35;1.48;;;1.00;;
53549;SDS011;67273;52.914;-0.982;2023-02-22T13:14:11;1.38;;;1.00;;
53549;SDS011;67273;52.914;-0.982;2023-02-22T13:16:49;1.90;;;1.30;;
53549;SDS011;67273;52.914;-0.982;2023-02-22T13:19:25;1.67;;;0.90;;
53549;SDS011;67273;52.914;-0.982;2023-02-22T13:22:04;1.25;;;1.00;;
53549;SDS011;67273;52.914;-0.982;2023-02-22T13:24:48;2.35;;;1.25;;
53549;SDS011;67273;52.914;-0.982;2023-02-22T13:27:25;1.20;;;1.02;;
53549;SDS011;67273;52.914;-0.982;2023-02-22T13:29:55;1.05;;;0.95;;
53549;SDS011;67273;52.914;-0.982;2023-02-22T13:32:26;1.58;;;1.00;;
53549;SDS011;67273;52.914;-0.982;2023-02-22T13:35:15;2.05;;;1.50;;
53549;SDS011;67273;52.914;-0.982;2023-02-22T13:38:22;2.15;;;1.48;;
53549;SDS011;67273;52.914;-0.982;2023-02-22T13:44:17;1.90;;;1.48;;
53549;SDS011;67273;52.914;-0.982;2023-02-22T13:47:10;1.67;;;1.10;;
53549;SDS011;67273;52.914;-0.982;2023-02-22T13:49:58;1.70;;;1.10;;
53549;SDS011;67273;52.914;-0.982;2023-02-22T13:52:39;4.05;;;1.17;;
53549;SDS011;67273;52.914;-0.982;2023-02-22T13:55:07;1.60;;;1.10;;
53549;SDS011;67273;52.914;-0.982;2023-02-22T13:57:39;1.67;;;1.00;;
53549;SDS011;67273;52.914;-0.982;2023-02-22T14:00:21;1.10;;;0.98;;
53549;SDS011;67273;52.914;-0.982;2023-02-22T14:03:03;1.67;;;1.02;;
53549;SDS011;67273;52.914;-0.982;2023-02-22T14:05:46;2.47;;;1.42;;
53549;SDS011;67273;52.914;-0.982;2023-02-22T14:11:04;4.18;;;1.55;;
53549;SDS011;67273;52.914;-0.982;2023-02-22T14:13:30;4.70;;;2.03;;
53549;SDS011;67273;52.914;-0.982;2023-02-22T14:16:18;3.35;;;1.70;;
53549;SDS011;67273;52.914;-0.982;2023-02-22T14:18:47;3.83;;;1.98;;
53549;SDS011;67273;52.914;-0.982;2023-02-22T14:21:15;6.22;;;1.92;;
53549;SDS011;67273;52.914;-0.982;2023-02-22T14:23:45;6.32;;;2.17;;
53549;SDS011;67273;52.914;-0.982;2023-02-22T14:26:14;5.40;;;1.90;;
53549;SDS011;67273;52.914;-0.982;2023-02-22T14:28:47;5.25;;;2.20;;
53549;SDS011;67273;52.914;-0.982;2023-02-22T14:31:18;2.63;;;1.70;;
53549;SDS011;67273;52.914;-0.982;2023-02-22T14:33:50;5.53;;;1.65;;
53549;SDS011;67273;52.914;-0.982;2023-02-22T14:36:21;3.63;;;2.00;;
53549;SDS011;67273;52.914;-0.982;2023-02-22T14:38:50;3.83;;;2.05;;
53549;SDS011;67273;52.914;-0.982;2023-02-22T14:41:18;5.05;;;1.85;;
53549;SDS011;67273;52.914;-0.982;2023-02-22T14:43:51;4.70;;;1.83;;
53549;SDS011;67273;52.914;-0.982;2023-02-22T14:46:20;5.35;;;1.90;;
53549;SDS011;67273;52.914;-0.982;2023-02-22T14:48:50;3.10;;;1.70;;
53549;SDS011;67273;52.914;-0.982;2023-02-22T14:51:23;4.75;;;1.88;;
53549;SDS011;67273;52.914;-0.982;2023-02-22T14:53:56;4.30;;;1.73;;
53549;SDS011;67273;52.914;-0.982;2023-02-22T14:56:28;2.80;;;1.50;;
53549;SDS011;67273;52.914;-0.982;2023-02-22T14:59:04;4.95;;;1.95;;
53549;SDS011;67273;52.914;-0.982;2023-02-22T15:01:41;2.55;;;1.70;;
53549;SDS011;67273;52.914;-0.982;2023-02-22T15:04:17;3.38;;;1.35;;